Terminal Aerodrome Forecast
Issued by NWS

Home | Current Version | Previous Version | Text Only | Print | Product List | Glossary On
Versions: 1 2 3 4 5 6 7 8 9 10 11 12 13
000
FTUS42 KTBW 161134
TAFPGD
TAF
KPGD 161134Z 1612/1712 VRB04KT P6SM FEW025 SCT250
     FM161700 32007KT P6SM VCTS SCT035CB BKN080 BKN250
     FM170100 VRB03KT P6SM FEW040 BKN250=

USA.gov is the U.S. government's official web portal to all federal, state and local government web resources and services.